Jonesboro Municipal Airport Jonesboro US
ICAO: KJBR
IATA: JBR
Category: Medium
Scheduled Services: Yes

Elevation: 262 ft
TransAlt. 18000 ft.

Airport Communications:
ASOS:118.525
MEMPHIS CNTR:120.075
CTAF:123.6
RDO:122.2
UNICOM:123

KJBR Zoom In..

If Map Doesn't Load, Click Here

Runways:

(A) RW 05 length 6200 ft width 150 ft
---- / hdg 50

(B) RW 13 length 4099 ft width 150 ft
---- / hdg 135

(C) RW 23 length 6200 ft width 150 ft
ILS 110.15 / hdg 230

(D) RW 31 length 4099 ft width 150 ft
---- / hdg 315

Location; KJBR
Day. 26 / Time. 10.53 Zulu
* Altimeter: 30.01
* Temperature: 23° c. 73.4°f.
* Wind from: 300° Speed 06 kn.
Dewpoint: 23° c.
Visibility: 10 Statute Miles.
Clouds: Overcast 1000 ft.

KJBR 261053Z AUTO 30006KT 10SM OVC100 23/23 A3001 RMK AO2 SLP158 T02280228 PNO $


Wind From 300°
Speed 06 kn.

 
 
jpsmedia.com for Web Design worldairports.se 2018   terms of use